sensor_id;sensor_type;location;lat;lon;timestamp;temperature;humidity
79439;DHT22;68889;48.232;10.110;2023-08-12T00:00:09;18.50;91.60
79439;DHT22;68889;48.232;10.110;2023-08-12T00:02:39;18.50;91.60
79439;DHT22;68889;48.232;10.110;2023-08-12T00:05:06;18.40;92.20
79439;DHT22;68889;48.232;10.110;2023-08-12T00:07:32;18.40;93.20
79439;DHT22;68889;48.232;10.110;2023-08-12T00:09:59;18.40;92.00
79439;DHT22;68889;48.232;10.110;2023-08-12T00:12:26;18.30;93.40
79439;DHT22;68889;48.232;10.110;2023-08-12T00:14:51;18.30;92.20
79439;DHT22;68889;48.232;10.110;2023-08-12T00:17:17;18.30;91.80
79439;DHT22;68889;48.232;10.110;2023-08-12T00:19:42;18.30;91.60
79439;DHT22;68889;48.232;10.110;2023-08-12T00:22:08;18.30;91.60
79439;DHT22;68889;48.232;10.110;2023-08-12T00:24:33;18.30;91.80
79439;DHT22;68889;48.232;10.110;2023-08-12T00:26:59;18.20;91.80
79439;DHT22;68889;48.232;10.110;2023-08-12T00:29:24;18.20;93.50
79439;DHT22;68889;48.232;10.110;2023-08-12T00:31:50;18.10;92.80
79439;DHT22;68889;48.232;10.110;2023-08-12T00:34:16;18.10;92.20
79439;DHT22;68889;48.232;10.110;2023-08-12T00:36:42;18.10;90.70
79439;DHT22;68889;48.232;10.110;2023-08-12T00:39:07;18.10;92.30
79439;DHT22;68889;48.232;10.110;2023-08-12T00:41:33;18.10;92.40
79439;DHT22;68889;48.232;10.110;2023-08-12T00:43:58;18.00;93.40
79439;DHT22;68889;48.232;10.110;2023-08-12T00:46:24;18.00;94.10
79439;DHT22;68889;48.232;10.110;2023-08-12T00:48:50;18.00;94.20
79439;DHT22;68889;48.232;10.110;2023-08-12T00:51:16;17.90;94.20
79439;DHT22;68889;48.232;10.110;2023-08-12T00:53:42;17.90;94.30
79439;DHT22;68889;48.232;10.110;2023-08-12T00:56:08;17.80;93.30
79439;DHT22;68889;48.232;10.110;2023-08-12T00:58:34;17.90;93.30
79439;DHT22;68889;48.232;10.110;2023-08-12T01:00:59;17.90;93.20
79439;DHT22;68889;48.232;10.110;2023-08-12T01:03:25;17.80;94.00
79439;DHT22;68889;48.232;10.110;2023-08-12T01:05:51;17.70;94.90
79439;DHT22;68889;48.232;10.110;2023-08-12T01:08:16;17.70;94.20
79439;DHT22;68889;48.232;10.110;2023-08-12T01:10:48;17.70;93.50
79439;DHT22;68889;48.232;10.110;2023-08-12T01:13:44;17.60;94.00
79439;DHT22;68889;48.232;10.110;2023-08-12T01:16:13;17.60;94.80
79439;DHT22;68889;48.232;10.110;2023-08-12T01:18:41;17.60;93.80
79439;DHT22;68889;48.232;10.110;2023-08-12T01:21:07;17.60;93.70
79439;DHT22;68889;48.232;10.110;2023-08-12T01:23:34;17.60;93.00
79439;DHT22;68889;48.232;10.110;2023-08-12T01:26:00;17.50;94.50
79439;DHT22;68889;48.232;10.110;2023-08-12T01:28:25;17.50;93.50
79439;DHT22;68889;48.232;10.110;2023-08-12T01:30:58;17.40;94.60
79439;DHT22;68889;48.232;10.110;2023-08-12T01:33:41;17.50;93.50
79439;DHT22;68889;48.232;10.110;2023-08-12T01:36:16;17.40;95.40
79439;DHT22;68889;48.232;10.110;2023-08-12T01:38:43;17.40;95.00
79439;DHT22;68889;48.232;10.110;2023-08-12T01:41:10;17.40;94.00
79439;DHT22;68889;48.232;10.110;2023-08-12T01:43:37;17.40;93.90
79439;DHT22;68889;48.232;10.110;2023-08-12T01:46:03;17.40;93.70
79439;DHT22;68889;48.232;10.110;2023-08-12T01:48:29;17.40;92.90
79439;DHT22;68889;48.232;10.110;2023-08-12T01:50:54;17.40;94.10
79439;DHT22;68889;48.232;10.110;2023-08-12T01:53:20;17.40;93.80
79439;DHT22;68889;48.232;10.110;2023-08-12T01:55:45;17.30;94.00
79439;DHT22;68889;48.232;10.110;2023-08-12T01:58:11;17.30;93.10
79439;DHT22;68889;48.232;10.110;2023-08-12T02:00:37;17.30;96.00
79439;DHT22;68889;48.232;10.110;2023-08-12T02:03:03;17.20;95.70
79439;DHT22;68889;48.232;10.110;2023-08-12T02:05:28;17.20;95.70
79439;DHT22;68889;48.232;10.110;2023-08-12T02:07:54;17.10;95.40
79439;DHT22;68889;48.232;10.110;2023-08-12T02:10:19;17.10;97.10
79439;DHT22;68889;48.232;10.110;2023-08-12T02:12:45;17.10;95.40
79439;DHT22;68889;48.232;10.110;2023-08-12T02:15:11;17.20;95.20
79439;DHT22;68889;48.232;10.110;2023-08-12T02:17:36;17.20;94.50
79439;DHT22;68889;48.232;10.110;2023-08-12T02:20:02;17.10;93.30
79439;DHT22;68889;48.232;10.110;2023-08-12T02:22:29;17.10;94.10
79439;DHT22;68889;48.232;10.110;2023-08-12T02:24:54;17.10;95.10
79439;DHT22;68889;48.232;10.110;2023-08-12T02:27:20;17.10;96.10
79439;DHT22;68889;48.232;10.110;2023-08-12T02:29:46;17.00;95.40
79439;DHT22;68889;48.232;10.110;2023-08-12T02:32:11;17.00;94.60
79439;DHT22;68889;48.232;10.110;2023-08-12T02:34:37;17.00;95.20
79439;DHT22;68889;48.232;10.110;2023-08-12T02:37:02;16.90;95.50
79439;DHT22;68889;48.232;10.110;2023-08-12T02:39:28;16.90;97.90
79439;DHT22;68889;48.232;10.110;2023-08-12T02:41:53;16.80;97.60
79439;DHT22;68889;48.232;10.110;2023-08-12T02:44:19;16.80;97.10
79439;DHT22;68889;48.232;10.110;2023-08-12T02:46:44;16.80;98.50
79439;DHT22;68889;48.232;10.110;2023-08-12T02:49:10;16.90;97.40
79439;DHT22;68889;48.232;10.110;2023-08-12T02:51:36;16.90;96.80
79439;DHT22;68889;48.232;10.110;2023-08-12T02:54:01;16.90;96.70
79439;DHT22;68889;48.232;10.110;2023-08-12T02:56:26;16.90;97.10
79439;DHT22;68889;48.232;10.110;2023-08-12T02:58:52;16.80;97.40
79439;DHT22;68889;48.232;10.110;2023-08-12T03:01:18;16.80;97.10
79439;DHT22;68889;48.232;10.110;2023-08-12T03:03:44;16.80;97.20
79439;DHT22;68889;48.232;10.110;2023-08-12T03:06:10;16.80;97.20
79439;DHT22;68889;48.232;10.110;2023-08-12T03:08:35;16.80;97.20
79439;DHT22;68889;48.232;10.110;2023-08-12T03:11:01;16.80;96.60
79439;DHT22;68889;48.232;10.110;2023-08-12T03:13:28;16.80;96.70
79439;DHT22;68889;48.232;10.110;2023-08-12T03:15:53;16.80;96.00
79439;DHT22;68889;48.232;10.110;2023-08-12T03:18:19;16.80;95.40
79439;DHT22;68889;48.232;10.110;2023-08-12T03:20:45;16.90;96.40
79439;DHT22;68889;48.232;10.110;2023-08-12T03:23:10;16.80;96.50
79439;DHT22;68889;48.232;10.110;2023-08-12T03:25:36;16.80;96.60
79439;DHT22;68889;48.232;10.110;2023-08-12T03:28:01;16.70;97.10
79439;DHT22;68889;48.232;10.110;2023-08-12T03:30:27;16.70;97.40
79439;DHT22;68889;48.232;10.110;2023-08-12T03:32:52;16.70;97.10
79439;DHT22;68889;48.232;10.110;2023-08-12T03:35:18;16.70;97.20
79439;DHT22;68889;48.232;10.110;2023-08-12T03:37:44;16.80;96.90
79439;DHT22;68889;48.232;10.110;2023-08-12T03:40:10;16.80;96.60
79439;DHT22;68889;48.232;10.110;2023-08-12T03:42:36;16.80;96.50
79439;DHT22;68889;48.232;10.110;2023-08-12T03:45:01;16.90;96.20
79439;DHT22;68889;48.232;10.110;2023-08-12T03:47:27;16.80;96.40
79439;DHT22;68889;48.232;10.110;2023-08-12T03:49:53;16.80;96.90
79439;DHT22;68889;48.232;10.110;2023-08-12T03:52:18;16.80;96.80
79439;DHT22;68889;48.232;10.110;2023-08-12T03:54:44;16.80;96.80
79439;DHT22;68889;48.232;10.110;2023-08-12T03:57:10;16.80;96.50
79439;DHT22;68889;48.232;10.110;2023-08-12T03:59:36;16.80;96.50
79439;DHT22;68889;48.232;10.110;2023-08-12T04:02:01;16.80;96.60
79439;DHT22;68889;48.232;10.110;2023-08-12T04:04:27;16.70;96.40
79439;DHT22;68889;48.232;10.110;2023-08-12T04:06:53;16.80;96.50
79439;DHT22;68889;48.232;10.110;2023-08-12T04:09:19;16.80;96.40
79439;DHT22;68889;48.232;10.110;2023-08-12T04:11:45;16.80;96.50
79439;DHT22;68889;48.232;10.110;2023-08-12T04:14:11;16.80;96.70
79439;DHT22;68889;48.232;10.110;2023-08-12T04:16:37;16.80;96.80
79439;DHT22;68889;48.232;10.110;2023-08-12T04:19:03;16.80;96.70
79439;DHT22;68889;48.232;10.110;2023-08-12T04:21:28;16.90;96.50
79439;DHT22;68889;48.232;10.110;2023-08-12T04:23:54;16.90;96.70
79439;DHT22;68889;48.232;10.110;2023-08-12T04:26:19;16.90;96.40
79439;DHT22;68889;48.232;10.110;2023-08-12T04:28:45;17.00;96.60
79439;DHT22;68889;48.232;10.110;2023-08-12T04:31:10;17.00;96.00
79439;DHT22;68889;48.232;10.110;2023-08-12T04:33:36;17.00;96.00
79439;DHT22;68889;48.232;10.110;2023-08-12T04:36:01;17.00;95.50
79439;DHT22;68889;48.232;10.110;2023-08-12T04:38:27;17.10;95.20
79439;DHT22;68889;48.232;10.110;2023-08-12T04:40:53;17.10;95.30
79439;DHT22;68889;48.232;10.110;2023-08-12T04:43:19;17.00;95.50
79439;DHT22;68889;48.232;10.110;2023-08-12T04:45:48;17.00;95.70
79439;DHT22;68889;48.232;10.110;2023-08-12T04:48:14;17.00;95.70
79439;DHT22;68889;48.232;10.110;2023-08-12T04:50:39;17.00;95.40
79439;DHT22;68889;48.232;10.110;2023-08-12T04:53:05;17.10;95.10
79439;DHT22;68889;48.232;10.110;2023-08-12T04:55:31;17.20;95.20
79439;DHT22;68889;48.232;10.110;2023-08-12T04:57:57;17.20;94.70
79439;DHT22;68889;48.232;10.110;2023-08-12T05:00:23;17.30;94.50
79439;DHT22;68889;48.232;10.110;2023-08-12T05:02:49;17.40;94.40
79439;DHT22;68889;48.232;10.110;2023-08-12T05:05:15;17.50;94.10
79439;DHT22;68889;48.232;10.110;2023-08-12T05:07:40;17.70;94.00
79439;DHT22;68889;48.232;10.110;2023-08-12T05:10:06;17.80;93.30
79439;DHT22;68889;48.232;10.110;2023-08-12T05:12:32;17.80;93.60
79439;DHT22;68889;48.232;10.110;2023-08-12T05:14:57;17.90;93.60
79439;DHT22;68889;48.232;10.110;2023-08-12T05:17:23;18.10;93.00
79439;DHT22;68889;48.232;10.110;2023-08-12T05:19:49;18.20;92.60
79439;DHT22;68889;48.232;10.110;2023-08-12T05:22:15;18.40;92.30
79439;DHT22;68889;48.232;10.110;2023-08-12T05:24:40;18.50;93.20
79439;DHT22;68889;48.232;10.110;2023-08-12T05:27:06;18.70;92.40
79439;DHT22;68889;48.232;10.110;2023-08-12T05:29:31;18.70;91.70
79439;DHT22;68889;48.232;10.110;2023-08-12T05:31:57;18.80;91.00
79439;DHT22;68889;48.232;10.110;2023-08-12T05:34:22;18.80;91.00
79439;DHT22;68889;48.232;10.110;2023-08-12T05:36:48;18.70;91.10
79439;DHT22;68889;48.232;10.110;2023-08-12T05:39:13;18.70;91.10
79439;DHT22;68889;48.232;10.110;2023-08-12T05:41:41;18.70;91.60
79439;DHT22;68889;48.232;10.110;2023-08-12T05:44:06;18.70;91.60
79439;DHT22;68889;48.232;10.110;2023-08-12T05:46:32;18.90;91.00
79439;DHT22;68889;48.232;10.110;2023-08-12T05:48:58;19.00;92.00
79439;DHT22;68889;48.232;10.110;2023-08-12T05:51:23;19.10;90.30
79439;DHT22;68889;48.232;10.110;2023-08-12T05:53:48;19.20;89.90
79439;DHT22;68889;48.232;10.110;2023-08-12T05:56:14;19.30;90.00
79439;DHT22;68889;48.232;10.110;2023-08-12T05:58:39;19.40;89.10
79439;DHT22;68889;48.232;10.110;2023-08-12T06:01:05;19.40;89.90
79439;DHT22;68889;48.232;10.110;2023-08-12T06:03:31;19.60;89.00
79439;DHT22;68889;48.232;10.110;2023-08-12T06:05:56;19.80;87.90
79439;DHT22;68889;48.232;10.110;2023-08-12T06:08:22;19.80;87.50
79439;DHT22;68889;48.232;10.110;2023-08-12T06:10:47;19.80;87.30
79439;DHT22;68889;48.232;10.110;2023-08-12T06:13:13;19.90;86.80
79439;DHT22;68889;48.232;10.110;2023-08-12T06:15:38;20.00;88.10
79439;DHT22;68889;48.232;10.110;2023-08-12T06:18:04;20.10;86.90
79439;DHT22;68889;48.232;10.110;2023-08-12T06:20:30;20.30;86.70
79439;DHT22;68889;48.232;10.110;2023-08-12T06:22:55;20.30;86.80
79439;DHT22;68889;48.232;10.110;2023-08-12T06:25:21;20.40;87.50
79439;DHT22;68889;48.232;10.110;2023-08-12T06:27:46;20.50;87.10
79439;DHT22;68889;48.232;10.110;2023-08-12T06:30:12;20.70;84.70
79439;DHT22;68889;48.232;10.110;2023-08-12T06:32:38;20.80;84.90
79439;DHT22;68889;48.232;10.110;2023-08-12T06:35:04;20.80;85.10
79439;DHT22;68889;48.232;10.110;2023-08-12T06:37:30;20.80;85.70
79439;DHT22;68889;48.232;10.110;2023-08-12T06:39:55;20.80;85.80
79439;DHT22;68889;48.232;10.110;2023-08-12T06:42:21;20.80;84.80
79439;DHT22;68889;48.232;10.110;2023-08-12T06:44:54;20.80;84.40
79439;DHT22;68889;48.232;10.110;2023-08-12T06:47:20;20.80;85.30
79439;DHT22;68889;48.232;10.110;2023-08-12T06:49:45;21.00;85.00
79439;DHT22;68889;48.232;10.110;2023-08-12T06:52:11;21.20;85.40
79439;DHT22;68889;48.232;10.110;2023-08-12T06:54:37;21.50;84.80
79439;DHT22;68889;48.232;10.110;2023-08-12T06:57:03;21.70;83.70
79439;DHT22;68889;48.232;10.110;2023-08-12T06:59:28;21.90;83.90
79439;DHT22;68889;48.232;10.110;2023-08-12T07:01:54;22.00;82.70
79439;DHT22;68889;48.232;10.110;2023-08-12T07:04:19;22.10;82.00
79439;DHT22;68889;48.232;10.110;2023-08-12T07:06:45;22.10;81.50
79439;DHT22;68889;48.232;10.110;2023-08-12T07:09:10;22.30;84.20
79439;DHT22;68889;48.232;10.110;2023-08-12T07:11:36;22.60;83.30
79439;DHT22;68889;48.232;10.110;2023-08-12T07:14:01;23.00;81.90
79439;DHT22;68889;48.232;10.110;2023-08-12T07:16:27;23.20;80.60
79439;DHT22;68889;48.232;10.110;2023-08-12T07:18:52;23.50;80.40
79439;DHT22;68889;48.232;10.110;2023-08-12T07:21:18;23.60;79.20
79439;DHT22;68889;48.232;10.110;2023-08-12T07:23:43;23.60;78.20
79439;DHT22;68889;48.232;10.110;2023-08-12T07:26:10;23.60;80.30
79439;DHT22;68889;48.232;10.110;2023-08-12T07:28:35;23.70;80.20
79439;DHT22;68889;48.232;10.110;2023-08-12T07:31:01;23.80;77.50
79439;DHT22;68889;48.232;10.110;2023-08-12T07:33:27;23.70;76.60
79439;DHT22;68889;48.232;10.110;2023-08-12T07:35:52;23.50;77.00
79439;DHT22;68889;48.232;10.110;2023-08-12T07:38:18;23.20;78.40
79439;DHT22;68889;48.232;10.110;2023-08-12T07:40:44;23.10;79.40
79439;DHT22;68889;48.232;10.110;2023-08-12T07:43:09;23.10;80.50
79439;DHT22;68889;48.232;10.110;2023-08-12T07:45:35;23.30;81.70
79439;DHT22;68889;48.232;10.110;2023-08-12T07:48:00;23.60;80.80
79439;DHT22;68889;48.232;10.110;2023-08-12T07:50:26;24.00;79.10
79439;DHT22;68889;48.232;10.110;2023-08-12T07:52:51;24.40;78.60
79439;DHT22;68889;48.232;10.110;2023-08-12T07:55:17;24.80;77.40
79439;DHT22;68889;48.232;10.110;2023-08-12T07:57:44;25.20;75.40
79439;DHT22;68889;48.232;10.110;2023-08-12T08:00:10;25.50;74.50
79439;DHT22;68889;48.232;10.110;2023-08-12T08:02:37;25.80;74.40
79439;DHT22;68889;48.232;10.110;2023-08-12T08:05:03;26.00;73.90
79439;DHT22;68889;48.232;10.110;2023-08-12T08:07:29;26.00;72.50
79439;DHT22;68889;48.232;10.110;2023-08-12T08:09:54;25.90;73.00
79439;DHT22;68889;48.232;10.110;2023-08-12T08:12:20;25.80;72.90
79439;DHT22;68889;48.232;10.110;2023-08-12T08:14:46;25.80;75.90
79439;DHT22;68889;48.232;10.110;2023-08-12T08:17:11;26.00;73.50
79439;DHT22;68889;48.232;10.110;2023-08-12T08:19:37;26.10;73.60
79439;DHT22;68889;48.232;10.110;2023-08-12T08:22:03;26.20;74.50
79439;DHT22;68889;48.232;10.110;2023-08-12T08:24:29;26.40;73.30
79439;DHT22;68889;48.232;10.110;2023-08-12T08:26:54;26.90;71.00
79439;DHT22;68889;48.232;10.110;2023-08-12T08:29:20;27.20;70.70
79439;DHT22;68889;48.232;10.110;2023-08-12T08:31:46;27.60;76.40
79439;DHT22;68889;48.232;10.110;2023-08-12T08:34:11;27.70;69.20
79439;DHT22;68889;48.232;10.110;2023-08-12T08:36:37;27.80;68.20
79439;DHT22;68889;48.232;10.110;2023-08-12T08:39:03;27.80;70.30
79439;DHT22;68889;48.232;10.110;2023-08-12T08:41:31;27.50;69.60
79439;DHT22;68889;48.232;10.110;2023-08-12T08:44:01;27.40;71.60
79439;DHT22;68889;48.232;10.110;2023-08-12T08:46:27;27.30;71.10
79439;DHT22;68889;48.232;10.110;2023-08-12T08:48:53;27.30;70.10
79439;DHT22;68889;48.232;10.110;2023-08-12T08:51:19;27.50;70.60
79439;DHT22;68889;48.232;10.110;2023-08-12T08:53:45;27.70;73.20
79439;DHT22;68889;48.232;10.110;2023-08-12T08:56:11;27.90;73.00
79439;DHT22;68889;48.232;10.110;2023-08-12T08:58:40;28.00;71.30
79439;DHT22;68889;48.232;10.110;2023-08-12T09:01:06;28.10;69.80
79439;DHT22;68889;48.232;10.110;2023-08-12T09:03:34;28.20;71.80
79439;DHT22;68889;48.232;10.110;2023-08-12T09:06:01;28.20;69.00
79439;DHT22;68889;48.232;10.110;2023-08-12T09:08:27;28.20;70.60
79439;DHT22;68889;48.232;10.110;2023-08-12T09:10:54;28.30;69.50
79439;DHT22;68889;48.232;10.110;2023-08-12T09:13:20;28.60;74.00
79439;DHT22;68889;48.232;10.110;2023-08-12T09:15:46;29.20;70.40
79439;DHT22;68889;48.232;10.110;2023-08-12T09:18:11;29.60;68.20
79439;DHT22;68889;48.232;10.110;2023-08-12T09:20:37;30.00;66.40
79439;DHT22;68889;48.232;10.110;2023-08-12T09:23:03;30.30;65.60
79439;DHT22;68889;48.232;10.110;2023-08-12T09:25:29;30.40;63.40
79439;DHT22;68889;48.232;10.110;2023-08-12T09:27:58;30.70;63.60
79439;DHT22;68889;48.232;10.110;2023-08-12T09:30:25;30.80;61.30
79439;DHT22;68889;48.232;10.110;2023-08-12T09:32:59;30.90;65.10
79439;DHT22;68889;48.232;10.110;2023-08-12T09:35:35;31.30;62.20
79439;DHT22;68889;48.232;10.110;2023-08-12T09:38:03;31.60;63.60
79439;DHT22;68889;48.232;10.110;2023-08-12T09:40:33;31.60;62.60
79439;DHT22;68889;48.232;10.110;2023-08-12T09:42:59;31.70;62.50
79439;DHT22;68889;48.232;10.110;2023-08-12T09:45:25;31.50;64.50
79439;DHT22;68889;48.232;10.110;2023-08-12T09:47:52;31.50;66.90
79439;DHT22;68889;48.232;10.110;2023-08-12T09:50:21;31.50;63.40
79439;DHT22;68889;48.232;10.110;2023-08-12T09:52:47;31.60;66.70
79439;DHT22;68889;48.232;10.110;2023-08-12T09:55:16;31.60;66.20
79439;DHT22;68889;48.232;10.110;2023-08-12T09:57:43;31.80;64.50
79439;DHT22;68889;48.232;10.110;2023-08-12T10:00:12;32.20;58.50
79439;DHT22;68889;48.232;10.110;2023-08-12T10:02:46;32.20;60.20
79439;DHT22;68889;48.232;10.110;2023-08-12T10:05:15;32.00;59.00
79439;DHT22;68889;48.232;10.110;2023-08-12T10:07:41;31.50;61.10
79439;DHT22;68889;48.232;10.110;2023-08-12T10:10:07;31.00;59.80
79439;DHT22;68889;48.232;10.110;2023-08-12T10:12:34;30.70;61.30
79439;DHT22;68889;48.232;10.110;2023-08-12T10:15:01;30.40;62.70
79439;DHT22;68889;48.232;10.110;2023-08-12T10:17:28;30.30;64.10
79439;DHT22;68889;48.232;10.110;2023-08-12T10:19:55;30.10;64.90
79439;DHT22;68889;48.232;10.110;2023-08-12T10:22:21;30.00;64.60
79439;DHT22;68889;48.232;10.110;2023-08-12T10:24:48;29.70;65.30
79439;DHT22;68889;48.232;10.110;2023-08-12T10:27:16;29.80;66.10
79439;DHT22;68889;48.232;10.110;2023-08-12T10:29:42;29.90;64.90
79439;DHT22;68889;48.232;10.110;2023-08-12T10:32:09;30.10;66.90
79439;DHT22;68889;48.232;10.110;2023-08-12T10:34:34;30.40;65.50
79439;DHT22;68889;48.232;10.110;2023-08-12T10:37:03;30.70;66.50
79439;DHT22;68889;48.232;10.110;2023-08-12T10:39:31;31.20;66.20
79439;DHT22;68889;48.232;10.110;2023-08-12T10:41:57;31.50;61.80
79439;DHT22;68889;48.232;10.110;2023-08-12T10:44:50;31.60;62.60
79439;DHT22;68889;48.232;10.110;2023-08-12T10:47:17;31.80;63.00
79439;DHT22;68889;48.232;10.110;2023-08-12T10:49:44;31.70;60.80
79439;DHT22;68889;48.232;10.110;2023-08-12T10:52:32;31.50;61.50
79439;DHT22;68889;48.232;10.110;2023-08-12T10:55:24;31.20;61.90
79439;DHT22;68889;48.232;10.110;2023-08-12T10:57:54;30.70;62.90
79439;DHT22;68889;48.232;10.110;2023-08-12T11:02:55;30.80;65.90
79439;DHT22;68889;48.232;10.110;2023-08-12T11:05:22;30.90;65.70
79439;DHT22;68889;48.232;10.110;2023-08-12T11:07:58;30.70;65.50
79439;DHT22;68889;48.232;10.110;2023-08-12T11:10:29;30.80;65.50
79439;DHT22;68889;48.232;10.110;2023-08-12T11:12:56;30.80;65.10
79439;DHT22;68889;48.232;10.110;2023-08-12T11:15:34;30.40;65.00
79439;DHT22;68889;48.232;10.110;2023-08-12T11:18:07;30.10;64.10
79439;DHT22;68889;48.232;10.110;2023-08-12T11:20:40;30.00;66.20
79439;DHT22;68889;48.232;10.110;2023-08-12T11:23:07;30.20;65.20
79439;DHT22;68889;48.232;10.110;2023-08-12T11:25:34;30.30;65.20
79439;DHT22;68889;48.232;10.110;2023-08-12T11:28:00;30.50;66.40
79439;DHT22;68889;48.232;10.110;2023-08-12T11:30:26;30.60;63.90
79439;DHT22;68889;48.232;10.110;2023-08-12T11:32:53;30.90;64.70
79439;DHT22;68889;48.232;10.110;2023-08-12T11:35:21;31.20;64.70
79439;DHT22;68889;48.232;10.110;2023-08-12T11:37:48;31.20;65.20
79439;DHT22;68889;48.232;10.110;2023-08-12T11:40:16;31.00;64.10
79439;DHT22;68889;48.232;10.110;2023-08-12T11:42:44;30.60;65.20
79439;DHT22;68889;48.232;10.110;2023-08-12T11:45:10;30.40;66.10
79439;DHT22;68889;48.232;10.110;2023-08-12T11:47:37;30.50;69.60
79439;DHT22;68889;48.232;10.110;2023-08-12T11:50:04;30.80;69.40
79439;DHT22;68889;48.232;10.110;2023-08-12T11:52:37;31.40;67.00
79439;DHT22;68889;48.232;10.110;2023-08-12T11:55:05;32.30;66.10
79439;DHT22;68889;48.232;10.110;2023-08-12T11:57:32;33.10;67.80
79439;DHT22;68889;48.232;10.110;2023-08-12T12:00:05;33.60;61.30
79439;DHT22;68889;48.232;10.110;2023-08-12T12:02:39;33.90;60.90
79439;DHT22;68889;48.232;10.110;2023-08-12T12:05:10;33.50;59.20
79439;DHT22;68889;48.232;10.110;2023-08-12T12:07:36;33.00;60.20
79439;DHT22;68889;48.232;10.110;2023-08-12T12:10:02;32.60;60.70
79439;DHT22;68889;48.232;10.110;2023-08-12T12:12:28;32.20;61.10
79439;DHT22;68889;48.232;10.110;2023-08-12T12:14:55;32.00;58.50
79439;DHT22;68889;48.232;10.110;2023-08-12T12:17:24;32.10;64.50
79439;DHT22;68889;48.232;10.110;2023-08-12T12:19:55;32.30;61.60
79439;DHT22;68889;48.232;10.110;2023-08-12T12:22:31;31.90;61.50
79439;DHT22;68889;48.232;10.110;2023-08-12T12:25:06;31.50;61.10
79439;DHT22;68889;48.232;10.110;2023-08-12T12:27:32;31.10;61.80
79439;DHT22;68889;48.232;10.110;2023-08-12T12:29:59;30.90;63.70
79439;DHT22;68889;48.232;10.110;2023-08-12T12:32:25;31.00;63.20
79439;DHT22;68889;48.232;10.110;2023-08-12T12:34:51;31.60;61.30
79439;DHT22;68889;48.232;10.110;2023-08-12T12:37:18;32.10;60.30
79439;DHT22;68889;48.232;10.110;2023-08-12T12:39:43;32.10;61.90
79439;DHT22;68889;48.232;10.110;2023-08-12T12:42:10;32.00;59.20
79439;DHT22;68889;48.232;10.110;2023-08-12T12:44:36;31.70;60.80
79439;DHT22;68889;48.232;10.110;2023-08-12T12:47:02;31.50;62.40
79439;DHT22;68889;48.232;10.110;2023-08-12T12:49:28;31.40;61.80
79439;DHT22;68889;48.232;10.110;2023-08-12T12:51:54;31.20;63.30
79439;DHT22;68889;48.232;10.110;2023-08-12T12:54:19;31.20;67.60
79439;DHT22;68889;48.232;10.110;2023-08-12T12:56:45;31.80;65.10
79439;DHT22;68889;48.232;10.110;2023-08-12T12:59:11;32.30;62.00
79439;DHT22;68889;48.232;10.110;2023-08-12T13:01:37;32.70;61.80
79439;DHT22;68889;48.232;10.110;2023-08-12T13:04:02;32.80;59.10
79439;DHT22;68889;48.232;10.110;2023-08-12T13:06:28;32.30;59.10
79439;DHT22;68889;48.232;10.110;2023-08-12T13:08:54;31.90;60.80
79439;DHT22;68889;48.232;10.110;2023-08-12T13:11:19;31.50;60.70
79439;DHT22;68889;48.232;10.110;2023-08-12T13:13:45;31.00;61.40
79439;DHT22;68889;48.232;10.110;2023-08-12T13:16:10;30.40;61.90
79439;DHT22;68889;48.232;10.110;2023-08-12T13:18:36;30.20;63.00
79439;DHT22;68889;48.232;10.110;2023-08-12T13:21:02;30.10;62.20
79439;DHT22;68889;48.232;10.110;2023-08-12T13:23:27;30.10;63.80
79439;DHT22;68889;48.232;10.110;2023-08-12T13:25:53;30.00;62.00
79439;DHT22;68889;48.232;10.110;2023-08-12T13:28:19;30.00;61.90
79439;DHT22;68889;48.232;10.110;2023-08-12T13:30:47;30.30;64.80
79439;DHT22;68889;48.232;10.110;2023-08-12T13:33:13;30.90;63.50
79439;DHT22;68889;48.232;10.110;2023-08-12T13:35:38;31.40;61.90
79439;DHT22;68889;48.232;10.110;2023-08-12T13:38:04;31.70;62.60
79439;DHT22;68889;48.232;10.110;2023-08-12T13:40:30;31.80;61.20
79439;DHT22;68889;48.232;10.110;2023-08-12T13:42:56;31.90;60.50
79439;DHT22;68889;48.232;10.110;2023-08-12T13:45:21;32.10;60.50
79439;DHT22;68889;48.232;10.110;2023-08-12T13:47:47;32.00;60.60
79439;DHT22;68889;48.232;10.110;2023-08-12T13:50:13;31.80;59.20
79439;DHT22;68889;48.232;10.110;2023-08-12T13:52:43;31.70;59.30
79439;DHT22;68889;48.232;10.110;2023-08-12T13:55:08;31.70;60.50
79439;DHT22;68889;48.232;10.110;2023-08-12T13:57:34;31.60;61.00
79439;DHT22;68889;48.232;10.110;2023-08-12T14:00:00;31.50;57.50
79439;DHT22;68889;48.232;10.110;2023-08-12T14:02:27;31.10;57.90
79439;DHT22;68889;48.232;10.110;2023-08-12T14:04:53;30.80;60.50
79439;DHT22;68889;48.232;10.110;2023-08-12T14:07:20;30.70;61.10
79439;DHT22;68889;48.232;10.110;2023-08-12T14:09:46;30.60;61.40
79439;DHT22;68889;48.232;10.110;2023-08-12T14:12:12;30.50;60.30
79439;DHT22;68889;48.232;10.110;2023-08-12T14:14:37;30.50;62.70
79439;DHT22;68889;48.232;10.110;2023-08-12T14:17:03;30.80;59.50
79439;DHT22;68889;48.232;10.110;2023-08-12T14:19:28;31.20;60.30
79439;DHT22;68889;48.232;10.110;2023-08-12T14:21:54;31.50;64.20
79439;DHT22;68889;48.232;10.110;2023-08-12T14:24:20;32.00;61.40
79439;DHT22;68889;48.232;10.110;2023-08-12T14:26:45;32.40;61.20
79439;DHT22;68889;48.232;10.110;2023-08-12T14:29:11;32.60;56.50
79439;DHT22;68889;48.232;10.110;2023-08-12T14:31:36;32.50;56.10
79439;DHT22;68889;48.232;10.110;2023-08-12T14:34:04;32.20;57.20
79439;DHT22;68889;48.232;10.110;2023-08-12T14:36:30;32.30;59.70
79439;DHT22;68889;48.232;10.110;2023-08-12T14:38:57;32.20;57.40
79439;DHT22;68889;48.232;10.110;2023-08-12T14:41:22;32.10;57.00
79439;DHT22;68889;48.232;10.110;2023-08-12T14:43:48;32.10;57.30
79439;DHT22;68889;48.232;10.110;2023-08-12T14:46:18;32.30;56.90
79439;DHT22;68889;48.232;10.110;2023-08-12T14:48:43;32.70;59.50
79439;DHT22;68889;48.232;10.110;2023-08-12T14:51:09;32.90;56.50
79439;DHT22;68889;48.232;10.110;2023-08-12T14:53:35;32.70;57.10
79439;DHT22;68889;48.232;10.110;2023-08-12T14:56:01;32.50;56.90
79439;DHT22;68889;48.232;10.110;2023-08-12T14:58:26;32.20;56.70
79439;DHT22;68889;48.232;10.110;2023-08-12T15:00:52;32.60;58.70
79439;DHT22;68889;48.232;10.110;2023-08-12T15:03:17;33.20;62.20
79439;DHT22;68889;48.232;10.110;2023-08-12T15:05:43;33.70;56.10
79439;DHT22;68889;48.232;10.110;2023-08-12T15:08:08;33.90;54.90
79439;DHT22;68889;48.232;10.110;2023-08-12T15:10:35;33.90;55.90
79439;DHT22;68889;48.232;10.110;2023-08-12T15:13:01;33.90;55.80